Time,TemperatureF,DewpointF,PressureIn,WindDirection,WindDirectionDegrees,WindSpeedMPH,WindSpeedGustMPH,Humidity,HourlyPrecipIn,Conditions,Clouds,dailyrainin,SoftwareType,DateUTC
2013-04-09 00:02:00,39.0,27.0,-100.00,SE,130,3.0,5.0,61,-99.99,,,-99.99,,2013-04-09 07:02:00,
2013-04-09 00:12:00,39.0,27.0,-100.00,SE,130,3.0,5.0,61,-99.99,,,-99.99,,2013-04-09 07:12:00,
2013-04-09 01:02:00,38.0,26.0,-100.00,SE,140,1.0,3.0,61,-99.99,,,-99.99,,2013-04-09 08:02:00,
2013-04-09 01:12:00,38.0,26.0,-100.00,SE,140,1.0,3.0,61,-99.99,,,-99.99,,2013-04-09 08:12:00,
2013-04-09 02:02:00,35.0,26.0,-100.00,NNW,340,0.0,1.0,69,-99.99,,,-99.99,,2013-04-09 09:02:00,
2013-04-09 02:12:00,35.0,26.0,-100.00,NNW,340,0.0,1.0,69,-99.99,,,-99.99,,2013-04-09 09:12:00,
2013-04-09 03:03:00,33.0,26.0,-100.00,WSW,240,0.0,1.0,75,-99.99,,,-99.99,,2013-04-09 10:03:00,
2013-04-09 03:12:00,33.0,26.0,-100.00,WSW,240,0.0,1.0,75,-99.99,,,-99.99,,2013-04-09 10:12:00,
2013-04-09 04:02:00,34.0,28.0,-100.00,SE,140,1.0,2.0,78,-99.99,,,-99.99,,2013-04-09 11:02:00,
2013-04-09 04:12:00,34.0,28.0,-100.00,SE,140,1.0,2.0,78,-99.99,,,-99.99,,2013-04-09 11:12:00,
2013-04-09 07:03:00,35.0,28.0,-100.00,SE,135,2.0,6.0,75,-99.99,,,-99.99,,2013-04-09 14:03:00,
2013-04-09 07:12:00,35.0,28.0,-100.00,SE,135,2.0,6.0,75,-99.99,,,-99.99,,2013-04-09 14:12:00,
2013-04-09 08:02:00,36.0,29.0,-100.00,SE,135,3.0,6.0,75,-99.99,,,-99.99,,2013-04-09 15:02:00,
2013-04-09 08:12:00,36.0,29.0,-100.00,SE,135,3.0,6.0,75,-99.99,,,-99.99,,2013-04-09 15:12:00,
2013-04-09 09:03:00,41.0,31.0,-100.00,ESE,110,5.0,12.0,67,-99.99,,,-99.99,,2013-04-09 16:03:00,
2013-04-09 09:13:00,41.0,31.0,-100.00,ESE,110,5.0,12.0,67,-99.99,,,-99.99,,2013-04-09 16:13:00,
2013-04-09 10:02:00,44.0,31.0,-100.00,ENE,70,3.0,6.0,59,-99.99,,,-99.99,,2013-04-09 17:02:00,
2013-04-09 10:12:00,44.0,31.0,-100.00,ENE,70,3.0,6.0,59,-99.99,,,-99.99,,2013-04-09 17:12:00,
2013-04-09 11:02:00,48.0,31.0,-100.00,NE,55,2.0,5.0,51,-99.99,,,-99.99,,2013-04-09 18:02:00,
2013-04-09 11:12:00,48.0,31.0,-100.00,NE,55,2.0,5.0,51,-99.99,,,-99.99,,2013-04-09 18:12:00,
2013-04-09 13:02:00,54.0,31.0,-100.00,NE,50,5.0,7.0,41,-99.99,,,-99.99,,2013-04-09 20:02:00,
2013-04-09 13:12:00,54.0,31.0,-100.00,NE,50,5.0,7.0,41,-99.99,,,-99.99,,2013-04-09 20:12:00,
2013-04-09 14:02:00,54.0,31.0,-100.00,NNW,340,1.0,7.0,41,-99.99,,,-99.99,,2013-04-09 21:02:00,
2013-04-09 14:13:00,54.0,31.0,-100.00,NNW,340,1.0,7.0,41,-99.99,,,-99.99,,2013-04-09 21:13:00,
2013-04-09 15:03:00,55.0,30.0,-100.00,WNW,285,6.0,7.0,38,-99.99,,,-99.99,,2013-04-09 22:03:00,
2013-04-09 15:12:00,55.0,30.0,-100.00,WNW,285,6.0,7.0,38,-99.99,,,-99.99,,2013-04-09 22:12:00,
2013-04-09 16:02:00,54.0,30.0,-100.00,SSW,200,2.0,5.0,39,-99.99,,,-99.99,,2013-04-09 23:02:00,
2013-04-09 16:12:00,54.0,30.0,-100.00,SSW,200,2.0,5.0,39,-99.99,,,-99.99,,2013-04-09 23:12:00,
2013-04-09 18:02:00,55.0,31.0,-100.00,NE,35,2.0,3.0,39,-99.99,,,-99.99,,2013-04-10 01:02:00,
2013-04-09 18:12:00,55.0,31.0,-100.00,NE,35,2.0,3.0,39,-99.99,,,-99.99,,2013-04-10 01:12:00,
2013-04-09 19:02:00,54.0,31.0,-100.00,SSE,165,1.0,5.0,41,-99.99,,,-99.99,,2013-04-10 02:02:00,
2013-04-09 19:12:00,54.0,31.0,-100.00,SSE,165,1.0,5.0,41,-99.99,,,-99.99,,2013-04-10 02:12:00,
2013-04-09 20:02:00,53.0,31.0,-100.00,WSW,255,2.0,5.0,42,-99.99,,,-99.99,,2013-04-10 03:02:00,
2013-04-09 20:12:00,53.0,31.0,-100.00,WSW,255,2.0,5.0,42,-99.99,,,-99.99,,2013-04-10 03:12:00,
2013-04-09 21:03:00,51.0,31.0,-100.00,SW,235,1.0,3.0,46,-99.99,,,-99.99,,2013-04-10 04:03:00,
2013-04-09 21:13:00,51.0,31.0,-100.00,SW,235,1.0,3.0,46,-99.99,,,-99.99,,2013-04-10 04:13:00,
2013-04-09 22:02:00,49.0,32.0,-100.00,WSW,255,1.0,5.0,51,-99.99,,,-99.99,,2013-04-10 05:02:00,
2013-04-09 22:13:00,49.0,32.0,-100.00,WSW,255,1.0,5.0,51,-99.99,,,-99.99,,2013-04-10 05:13:00,
2013-04-09 23:03:00,50.0,33.0,-100.00,WSW,245,3.0,7.0,51,-99.99,,,-99.99,,2013-04-10 06:03:00,
2013-04-09 23:12:00,50.0,33.0,-100.00,WSW,245,3.0,7.0,51,-99.99,,,-99.99,,2013-04-10 06:12:00,